createdAt,value
2018-11-10T00:00:20.601Z,35.17
2018-11-10T00:02:49.828Z,34.17
2018-11-10T00:05:19.376Z,32.67
2018-11-10T00:07:47.836Z,32.30
2018-11-10T00:10:16.987Z,34.20
2018-11-10T00:12:45.872Z,33.77
2018-11-10T00:15:15.011Z,31.67
2018-11-10T00:17:43.438Z,32.53
2018-11-10T00:20:12.100Z,33.87
2018-11-10T00:22:41.292Z,31.93
2018-11-10T00:25:11.476Z,32.97
2018-11-10T00:27:40.456Z,37.40
2018-11-10T00:30:10.755Z,35.00
2018-11-10T00:32:39.173Z,34.93
2018-11-10T00:35:07.916Z,36.03
2018-11-10T00:37:36.423Z,32.43
2018-11-10T00:40:05.552Z,35.17
2018-11-10T00:42:34.013Z,33.13
2018-11-10T00:45:02.436Z,34.70
2018-11-10T00:47:30.916Z,35.67
2018-11-10T00:49:59.339Z,36.00
2018-11-10T00:52:27.793Z,33.80
2018-11-10T00:54:56.220Z,36.07
2018-11-10T00:57:24.693Z,35.97
2018-11-10T00:59:53.105Z,36.70
2018-11-10T01:02:21.585Z,34.47
2018-11-10T01:04:50.009Z,32.30
2018-11-10T01:07:18.470Z,34.87
2018-11-10T01:09:46.902Z,33.40
2018-11-10T01:12:15.343Z,35.27
2018-11-10T01:14:43.768Z,32.20
2018-11-10T01:17:12.232Z,33.50
2018-11-10T01:19:40.652Z,34.27
2018-11-10T01:22:09.142Z,34.33
2018-11-10T01:24:37.573Z,35.20
2018-11-10T01:27:06.273Z,35.10
2018-11-10T01:29:34.685Z,34.00
2018-11-10T01:32:03.169Z,37.27
2018-11-10T01:34:31.586Z,34.57
2018-11-10T01:37:00.033Z,32.20
2018-11-10T01:39:28.472Z,33.30
2018-11-10T01:41:56.908Z,32.77
2018-11-10T01:44:25.310Z,34.80
2018-11-10T01:46:53.756Z,35.83
2018-11-10T01:49:22.172Z,34.07
2018-11-10T01:51:50.737Z,36.10
2018-11-10T01:54:19.188Z,34.03
2018-11-10T01:56:47.634Z,33.97
2018-11-10T01:59:16.049Z,33.83
2018-11-10T02:01:44.536Z,35.97
2018-11-10T02:04:13.469Z,34.63
2018-11-10T02:06:41.948Z,33.90
2018-11-10T02:09:11.067Z,33.93
2018-11-10T02:11:39.623Z,35.73
2018-11-10T02:14:08.146Z,34.33
2018-11-10T02:16:36.563Z,37.43
2018-11-10T02:19:05.462Z,35.73
2018-11-10T02:21:33.916Z,32.00
2018-11-10T02:24:02.370Z,35.50
2018-11-10T02:26:30.817Z,35.93
2018-11-10T02:28:59.284Z,37.60
2018-11-10T02:31:27.792Z,37.03
2018-11-10T02:33:56.252Z,35.30
2018-11-10T02:36:24.672Z,35.40
2018-11-10T02:38:53.206Z,36.50
2018-11-10T02:41:21.577Z,35.00
2018-11-10T02:43:50.046Z,34.67
2018-11-10T02:46:18.478Z,33.20
2018-11-10T02:48:46.917Z,37.00
2018-11-10T02:51:15.332Z,35.23
2018-11-10T02:53:43.788Z,37.00
2018-11-10T02:56:12.202Z,33.77
2018-11-10T02:58:40.647Z,34.70
2018-11-10T03:01:09.088Z,34.77
2018-11-10T03:03:37.550Z,36.00
2018-11-10T03:06:06.005Z,32.27
2018-11-10T03:08:34.517Z,35.53
2018-11-10T03:11:02.936Z,34.47
2018-11-10T03:13:31.381Z,34.47
2018-11-10T03:15:59.824Z,32.33
2018-11-10T03:18:28.260Z,31.60
2018-11-10T03:20:56.684Z,34.93
2018-11-10T03:23:25.129Z,35.03
2018-11-10T03:25:53.565Z,36.03
2018-11-10T03:28:21.973Z,33.00
2018-11-10T03:30:50.445Z,32.43
2018-11-10T03:33:18.859Z,35.57
2018-11-10T03:35:47.316Z,34.13
2018-11-10T03:38:15.732Z,35.80
2018-11-10T03:40:44.230Z,33.97
2018-11-10T03:43:12.637Z,33.90
2018-11-10T03:45:41.082Z,34.23
2018-11-10T03:48:09.518Z,36.70
2018-11-10T03:50:37.969Z,34.97
2018-11-10T03:53:06.383Z,31.00
2018-11-10T03:55:34.834Z,32.47
2018-11-10T03:58:03.245Z,31.80
2018-11-10T04:00:31.682Z,33.70
2018-11-10T04:03:00.120Z,34.30
2018-11-10T04:05:28.580Z,34.07
2018-11-10T04:07:56.994Z,35.67
2018-11-10T04:10:25.426Z,32.97
2018-11-10T04:12:53.857Z,30.30
2018-11-10T04:15:22.318Z,32.43
2018-11-10T04:17:50.725Z,33.80
2018-11-10T04:20:19.161Z,31.20
2018-11-10T04:22:47.579Z,35.30
2018-11-10T04:25:16.040Z,34.17
2018-11-10T04:27:44.436Z,30.10
2018-11-10T04:30:12.877Z,33.27
2018-11-10T04:32:41.306Z,34.87
2018-11-10T04:35:09.824Z,34.40
2018-11-10T04:37:38.352Z,32.77
2018-11-10T04:40:07.695Z,31.53
2018-11-10T04:42:36.114Z,34.47
2018-11-10T04:45:04.714Z,29.20
2018-11-10T04:47:33.131Z,30.97
2018-11-10T04:50:01.573Z,30.90
2018-11-10T04:52:30.004Z,31.10
2018-11-10T04:54:58.435Z,32.13
2018-11-10T04:57:26.857Z,31.60
2018-11-10T04:59:55.313Z,34.00
2018-11-10T05:02:23.767Z,32.90
2018-11-10T05:04:52.202Z,34.80
2018-11-10T05:07:20.621Z,32.90
2018-11-10T05:09:49.052Z,33.67
2018-11-10T05:12:17.467Z,31.97
2018-11-10T05:14:45.903Z,30.70
2018-11-10T05:17:14.348Z,28.30
2018-11-10T05:19:42.780Z,31.70
2018-11-10T05:22:11.225Z,30.13
2018-11-10T05:24:39.641Z,25.03
2018-11-10T05:27:08.080Z,28.67
2018-11-10T05:29:36.492Z,29.87
2018-11-10T05:32:04.969Z,29.03
2018-11-10T05:34:33.398Z,31.80
2018-11-10T05:37:01.876Z,31.40
2018-11-10T05:39:30.286Z,31.37
2018-11-10T05:41:58.746Z,31.67
2018-11-10T05:44:27.158Z,32.20
2018-11-10T05:46:55.589Z,33.50
2018-11-10T05:49:23.992Z,32.27
2018-11-10T05:51:52.436Z,30.27
2018-11-10T05:54:20.857Z,30.90
2018-11-10T05:56:49.285Z,31.80
2018-11-10T05:59:17.699Z,27.93
2018-11-10T06:01:46.451Z,30.77
2018-11-10T06:04:14.869Z,29.67
2018-11-10T06:06:43.308Z,30.90
2018-11-10T06:09:12.076Z,28.80
2018-11-10T06:11:41.084Z,31.43
2018-11-10T06:14:09.532Z,31.20
2018-11-10T06:16:37.996Z,28.93
2018-11-10T06:19:06.811Z,27.20
2018-11-10T06:21:35.238Z,27.47
2018-11-10T06:24:03.689Z,30.30
2018-11-10T06:26:32.093Z,29.47
2018-11-10T06:29:00.529Z,27.33
2018-11-10T06:31:29.000Z,26.87
2018-11-10T06:33:57.546Z,27.17
2018-11-10T06:36:25.976Z,28.57
2018-11-10T06:38:54.482Z,29.80
2018-11-10T06:41:23.041Z,28.80
2018-11-10T06:43:51.476Z,21.77
2018-11-10T06:46:22.845Z,26.07
2018-11-10T06:48:51.292Z,26.00
2018-11-10T06:51:19.696Z,26.77
2018-11-10T06:53:48.125Z,26.87
2018-11-10T06:56:16.532Z,27.73
2018-11-10T06:58:44.973Z,27.77
2018-11-10T07:01:13.412Z,24.50
2018-11-10T07:03:41.837Z,25.03
2018-11-10T07:06:10.256Z,25.00
2018-11-10T07:08:38.697Z,25.20
2018-11-10T07:11:07.114Z,25.30
2018-11-10T07:13:35.556Z,26.33
2018-11-10T07:16:03.956Z,27.63
2018-11-10T07:18:32.455Z,27.30
2018-11-10T07:21:00.888Z,24.47
2018-11-10T07:23:29.301Z,31.20
2018-11-10T07:25:57.746Z,28.53
2018-11-10T07:28:26.429Z,29.13
2018-11-10T07:30:54.882Z,25.10
2018-11-10T07:33:23.308Z,27.60
2018-11-10T07:35:51.753Z,49.90
2018-11-10T07:38:20.341Z,36.17
2018-11-10T07:40:48.775Z,40.87
2018-11-10T07:43:17.211Z,31.33
2018-11-10T07:45:45.645Z,25.80
2018-11-10T07:48:14.045Z,27.60
2018-11-10T07:50:42.475Z,25.00
2018-11-10T07:53:10.900Z,27.10
2018-11-10T07:55:39.359Z,24.20
2018-11-10T07:58:08.114Z,26.70
2018-11-10T08:00:36.557Z,25.47
2018-11-10T08:03:05.223Z,25.57
2018-11-10T08:05:33.656Z,25.50
2018-11-10T08:08:02.083Z,24.57
2018-11-10T08:10:30.544Z,26.20
2018-11-10T08:12:58.976Z,26.43
2018-11-10T08:15:27.437Z,23.87
2018-11-10T08:17:55.875Z,25.03
2018-11-10T08:20:24.347Z,20.93
2018-11-10T08:22:52.774Z,22.80
2018-11-10T08:25:21.213Z,22.67
2018-11-10T08:27:49.643Z,22.80
2018-11-10T08:30:18.123Z,22.27
2018-11-10T08:32:46.569Z,21.37
2018-11-10T08:35:15.541Z,21.33
2018-11-10T08:37:43.996Z,21.73
2018-11-10T08:40:16.752Z,20.87
2018-11-10T08:42:45.161Z,20.87
2018-11-10T08:45:14.573Z,20.23
2018-11-10T08:47:43.662Z,20.93
2018-11-10T08:50:13.316Z,22.30
2018-11-10T08:52:42.285Z,19.93
2018-11-10T08:55:11.753Z,22.10
2018-11-10T08:57:40.625Z,20.20
2018-11-10T09:00:10.005Z,20.43
2018-11-10T09:02:38.517Z,20.10
2018-11-10T09:05:09.304Z,18.67
2018-11-10T09:07:37.825Z,18.33
2018-11-10T09:10:07.750Z,20.00
2018-11-10T09:12:36.218Z,50.77
2018-11-10T09:15:05.385Z,21.27
2018-11-10T09:17:33.812Z,19.83
2018-11-10T09:20:02.261Z,18.67
2018-11-10T09:22:30.728Z,16.80
2018-11-10T09:24:59.277Z,19.13
2018-11-10T09:27:27.741Z,22.10
2018-11-10T09:29:56.153Z,18.40
2018-11-10T09:32:24.588Z,20.80
2018-11-10T09:34:53.016Z,20.10
2018-11-10T09:37:21.517Z,17.67
2018-11-10T09:39:49.948Z,18.63
2018-11-10T09:42:18.528Z,18.60
2018-11-10T09:44:46.874Z,18.87
2018-11-10T09:47:15.337Z,18.37
2018-11-10T09:49:43.784Z,18.40
2018-11-10T09:52:12.246Z,19.60
2018-11-10T09:54:40.796Z,16.80
2018-11-10T09:57:09.272Z,15.40
2018-11-10T09:59:37.674Z,18.50
2018-11-10T10:02:06.610Z,20.00
2018-11-10T10:04:34.769Z,18.90
2018-11-10T10:07:03.231Z,15.07
2018-11-10T10:09:31.681Z,16.60
2018-11-10T10:12:00.097Z,16.70
2018-11-10T10:14:28.557Z,17.10
2018-11-10T10:16:56.969Z,16.83
2018-11-10T10:19:25.420Z,17.30
2018-11-10T10:21:53.877Z,17.63
2018-11-10T10:24:22.345Z,17.90
2018-11-10T10:26:51.621Z,18.80
2018-11-10T10:29:20.167Z,18.60
2018-11-10T10:31:48.605Z,18.40
2018-11-10T10:34:17.148Z,17.50
2018-11-10T10:36:45.530Z,18.60
2018-11-10T10:39:14.017Z,17.73
2018-11-10T10:41:42.455Z,16.83
2018-11-10T10:44:11.292Z,16.57
2018-11-10T10:46:39.715Z,18.30
2018-11-10T10:49:08.202Z,18.10
2018-11-10T10:51:36.737Z,16.37
2018-11-10T10:54:05.389Z,28.33
2018-11-10T10:56:33.833Z,18.67
2018-11-10T10:59:02.430Z,17.00
2018-11-10T11:01:35.980Z,17.90
2018-11-10T11:04:09.773Z,14.73
2018-11-10T11:06:38.197Z,17.43
2018-11-10T11:09:07.985Z,17.40
2018-11-10T11:11:36.348Z,17.57
2018-11-10T11:14:04.829Z,17.30
2018-11-10T11:16:33.454Z,18.00
2018-11-10T11:19:02.002Z,15.77
2018-11-10T11:21:30.544Z,16.03
2018-11-10T11:23:58.968Z,14.77
2018-11-10T11:26:27.393Z,16.80
2018-11-10T11:28:55.871Z,16.57
2018-11-10T11:31:24.349Z,15.77
2018-11-10T11:33:52.820Z,15.87
2018-11-10T11:36:21.233Z,15.87
2018-11-10T11:38:49.705Z,15.40
2018-11-10T11:41:18.473Z,13.87
2018-11-10T11:43:46.801Z,15.60
2018-11-10T11:46:15.280Z,16.00
2018-11-10T11:48:43.710Z,12.20
2018-11-10T11:51:12.147Z,15.90
2018-11-10T11:53:40.589Z,13.73
2018-11-10T11:56:09.080Z,15.13
2018-11-10T11:58:37.519Z,17.30
2018-11-10T12:01:06.215Z,17.67
2018-11-10T12:03:34.893Z,16.07
2018-11-10T12:06:03.349Z,15.37
2018-11-10T12:08:31.795Z,16.37
2018-11-10T12:11:00.245Z,16.53
2018-11-10T12:13:28.674Z,17.23
2018-11-10T12:15:57.126Z,16.03
2018-11-10T12:18:25.552Z,16.83
2018-11-10T12:20:54.076Z,16.00
2018-11-10T12:23:22.483Z,16.00
2018-11-10T12:25:50.932Z,14.33
2018-11-10T12:28:19.394Z,16.10
2018-11-10T12:30:47.857Z,16.77
2018-11-10T12:33:16.268Z,16.20
2018-11-10T12:35:44.714Z,16.60
2018-11-10T12:38:13.138Z,16.50
2018-11-10T12:40:41.617Z,14.20
2018-11-10T12:43:10.052Z,16.53
2018-11-10T12:45:38.502Z,17.17
2018-11-10T12:48:06.915Z,16.83
2018-11-10T12:50:35.373Z,17.10
2018-11-10T12:53:03.813Z,16.50
2018-11-10T12:55:32.276Z,15.90
2018-11-10T12:58:00.748Z,16.70
2018-11-10T13:00:29.208Z,16.37
2018-11-10T13:02:57.658Z,17.87
2018-11-10T13:05:26.108Z,16.73
2018-11-10T13:07:54.554Z,14.83
2018-11-10T13:10:22.995Z,18.17
2018-11-10T13:12:51.423Z,17.27
2018-11-10T13:15:19.838Z,17.23
2018-11-10T13:17:48.367Z,18.33
2018-11-10T13:20:16.846Z,17.70
2018-11-10T13:22:45.298Z,19.00
2018-11-10T13:25:14.383Z,16.17
2018-11-10T13:27:42.892Z,17.10
2018-11-10T13:30:13.108Z,17.97
2018-11-10T13:32:41.597Z,17.10
2018-11-10T13:35:10.624Z,17.53
2018-11-10T13:37:39.076Z,17.27
2018-11-10T13:40:08.077Z,16.93
2018-11-10T13:42:36.536Z,17.67
2018-11-10T13:45:05.469Z,16.50
2018-11-10T13:47:33.938Z,18.70
2018-11-10T13:50:03.055Z,17.80
2018-11-10T13:52:32.145Z,16.70
2018-11-10T13:55:00.252Z,17.90
2018-11-10T13:57:28.757Z,17.13
2018-11-10T13:59:57.177Z,16.80
2018-11-10T14:02:25.818Z,16.60
2018-11-10T14:04:54.253Z,17.07
2018-11-10T14:07:22.726Z,16.63
2018-11-10T14:09:51.272Z,17.50
2018-11-10T14:12:19.713Z,14.87
2018-11-10T14:14:48.136Z,16.40
2018-11-10T14:17:16.595Z,16.10
2018-11-10T14:19:45.110Z,15.37
2018-11-10T14:22:13.558Z,14.60
2018-11-10T14:24:41.982Z,16.17
2018-11-10T14:27:10.463Z,16.30
2018-11-10T14:29:38.899Z,16.50
2018-11-10T14:32:07.319Z,15.00
2018-11-10T14:34:35.802Z,14.67
2018-11-10T14:37:04.223Z,15.53
2018-11-10T14:39:32.777Z,16.13
2018-11-10T14:42:01.200Z,16.40
2018-11-10T14:44:29.650Z,16.33
2018-11-10T14:46:58.077Z,15.20
2018-11-10T14:49:26.551Z,15.93
2018-11-10T14:51:54.964Z,16.97
2018-11-10T14:54:23.388Z,15.67
2018-11-10T14:56:51.820Z,16.07
2018-11-10T14:59:20.329Z,16.40
2018-11-10T15:01:48.778Z,16.13
2018-11-10T15:04:17.319Z,14.30
2018-11-10T15:06:45.740Z,15.20
2018-11-10T15:09:14.185Z,15.73
2018-11-10T15:11:42.650Z,14.97
2018-11-10T15:14:11.088Z,15.80
2018-11-10T15:16:39.500Z,15.60
2018-11-10T15:19:08.288Z,15.27
2018-11-10T15:21:36.711Z,14.87
2018-11-10T15:24:05.506Z,15.43
2018-11-10T15:26:33.941Z,14.10
2018-11-10T15:29:02.409Z,15.67
2018-11-10T15:31:30.833Z,13.80
2018-11-10T15:33:59.296Z,131.23
2018-11-10T15:36:27.725Z,15.00
2018-11-10T15:38:56.241Z,15.30
2018-11-10T15:41:24.659Z,14.47
2018-11-10T15:43:53.116Z,15.47
2018-11-10T15:46:21.532Z,15.23
2018-11-10T15:48:49.985Z,13.40
2018-11-10T15:51:18.452Z,14.73
2018-11-10T15:53:47.024Z,14.73
2018-11-10T15:56:15.465Z,14.47
2018-11-10T15:58:43.885Z,14.73
2018-11-10T16:01:12.368Z,14.37
2018-11-10T16:03:40.813Z,14.53
2018-11-10T16:06:09.255Z,13.70
2018-11-10T16:08:37.686Z,12.87
2018-11-10T16:11:06.189Z,13.60
2018-11-10T16:13:34.621Z,13.10
2018-11-10T16:16:03.086Z,13.00
2018-11-10T16:18:31.513Z,14.70
2018-11-10T16:21:00.020Z,12.40
2018-11-10T16:23:28.377Z,12.43
2018-11-10T16:25:56.850Z,12.80
2018-11-10T16:28:25.275Z,12.17
2018-11-10T16:30:53.717Z,12.80
2018-11-10T16:33:22.138Z,13.03
2018-11-10T16:35:50.578Z,12.97
2018-11-10T16:38:19.021Z,12.63
2018-11-10T16:40:47.460Z,11.90
2018-11-10T16:43:15.900Z,12.60
2018-11-10T16:45:44.356Z,12.73
2018-11-10T16:48:12.769Z,12.97
2018-11-10T16:50:41.193Z,13.10
2018-11-10T16:53:09.643Z,13.47
2018-11-10T16:55:38.084Z,12.27
2018-11-10T16:58:07.004Z,12.20
2018-11-10T17:00:35.484Z,13.13
2018-11-10T17:03:03.937Z,13.27
2018-11-10T17:05:32.394Z,12.23
2018-11-10T17:08:00.827Z,12.80
2018-11-10T17:10:29.273Z,13.40
2018-11-10T17:12:57.681Z,12.90
2018-11-10T17:15:26.158Z,12.23
2018-11-10T17:17:54.565Z,13.70
2018-11-10T17:20:23.016Z,13.27
2018-11-10T17:22:51.428Z,12.73
2018-11-10T17:25:19.879Z,12.47
2018-11-10T17:27:48.299Z,13.83
2018-11-10T17:30:19.375Z,13.63
2018-11-10T17:32:47.763Z,15.30
2018-11-10T17:35:16.264Z,14.23
2018-11-10T17:37:45.066Z,13.90
2018-11-10T17:40:14.351Z,12.80
2018-11-10T17:42:42.763Z,12.93
2018-11-10T17:45:13.503Z,12.87
2018-11-10T17:47:42.435Z,12.37
2018-11-10T17:50:12.352Z,13.97
2018-11-10T17:52:41.295Z,13.40
2018-11-10T17:55:11.098Z,14.20
2018-11-10T17:57:39.984Z,13.50
2018-11-10T18:00:08.408Z,13.73
2018-11-10T18:02:36.884Z,13.83
2018-11-10T18:05:06.454Z,17.70
2018-11-10T18:07:34.901Z,13.90
2018-11-10T18:10:03.379Z,13.50
2018-11-10T18:12:31.849Z,24.90
2018-11-10T18:15:00.276Z,17.50
2018-11-10T18:17:28.729Z,16.53
2018-11-10T18:19:57.150Z,13.20
2018-11-10T18:22:25.583Z,13.50
2018-11-10T18:24:54.312Z,16.00
2018-11-10T18:27:22.782Z,18.20
2018-11-10T18:29:51.195Z,14.10
2018-11-10T18:32:19.648Z,13.77
2018-11-10T18:34:48.102Z,12.77
2018-11-10T18:37:16.556Z,13.93
2018-11-10T18:39:45.112Z,11.67
2018-11-10T18:42:13.580Z,13.00
2018-11-10T18:44:42.024Z,12.03
2018-11-10T18:47:10.481Z,12.67
2018-11-10T18:49:38.937Z,12.30
2018-11-10T18:52:07.415Z,12.33
2018-11-10T18:54:35.859Z,12.53
2018-11-10T18:57:04.337Z,11.77
2018-11-10T18:59:32.769Z,11.77
2018-11-10T19:02:01.205Z,11.77
2018-11-10T19:04:29.675Z,11.73
2018-11-10T19:06:59.937Z,11.27
2018-11-10T19:09:28.394Z,12.63
2018-11-10T19:11:56.822Z,11.20
2018-11-10T19:14:25.269Z,11.70
2018-11-10T19:16:53.709Z,11.63
2018-11-10T19:19:22.180Z,11.03
2018-11-10T19:21:50.605Z,10.00
2018-11-10T19:24:19.086Z,10.80
2018-11-10T19:26:47.492Z,11.00
2018-11-10T19:29:15.975Z,11.07
2018-11-10T19:31:44.428Z,10.73
2018-11-10T19:34:12.901Z,10.50
2018-11-10T19:36:41.321Z,10.30
2018-11-10T19:39:10.905Z,10.27
2018-11-10T19:41:39.359Z,10.90
2018-11-10T19:44:08.324Z,11.07
2018-11-10T19:46:36.746Z,10.73
2018-11-10T19:49:05.513Z,10.50
2018-11-10T19:51:34.194Z,10.10
2018-11-10T19:54:02.444Z,9.80
2018-11-10T19:56:30.893Z,10.53
2018-11-10T19:58:59.335Z,10.70
2018-11-10T20:01:27.782Z,11.37
2018-11-10T20:03:56.225Z,11.00
2018-11-10T20:06:24.644Z,10.77
2018-11-10T20:08:53.067Z,10.33
2018-11-10T20:11:21.505Z,10.73
2018-11-10T20:13:50.052Z,11.33
2018-11-10T20:16:18.395Z,10.70
2018-11-10T20:18:46.871Z,10.23
2018-11-10T20:21:15.292Z,11.00
2018-11-10T20:23:43.763Z,11.70
2018-11-10T20:26:12.196Z,10.47
2018-11-10T20:28:40.602Z,12.10
2018-11-10T20:31:09.059Z,10.93
2018-11-10T20:33:38.100Z,10.63
2018-11-10T20:36:06.546Z,11.77
2018-11-10T20:38:34.990Z,10.77
2018-11-10T20:41:03.439Z,11.50
2018-11-10T20:43:31.868Z,11.27
2018-11-10T20:46:00.312Z,11.47
2018-11-10T20:48:28.769Z,11.57
2018-11-10T20:50:57.245Z,10.33
2018-11-10T20:53:25.766Z,10.93
2018-11-10T20:55:54.230Z,10.10
2018-11-10T20:58:22.651Z,10.50
2018-11-10T21:00:51.101Z,10.43
2018-11-10T21:03:19.555Z,9.97
2018-11-10T21:05:48.060Z,11.37
2018-11-10T21:08:16.475Z,10.90
2018-11-10T21:10:44.939Z,10.70
2018-11-10T21:13:13.371Z,11.13
2018-11-10T21:15:41.832Z,9.00
2018-11-10T21:18:10.247Z,10.10
2018-11-10T21:20:38.692Z,10.33
2018-11-10T21:23:07.128Z,10.93
2018-11-10T21:25:35.593Z,9.40
2018-11-10T21:28:04.013Z,10.17
2018-11-10T21:30:32.492Z,10.70
2018-11-10T21:33:00.933Z,9.80
2018-11-10T21:35:29.461Z,10.50
2018-11-10T21:37:57.819Z,17.33
2018-11-10T21:40:26.275Z,10.70
2018-11-10T21:42:54.674Z,10.00
2018-11-10T21:45:23.141Z,10.87
2018-11-10T21:47:51.568Z,9.70
2018-11-10T21:50:20.692Z,9.90
2018-11-10T21:52:49.148Z,9.67
2018-11-10T21:55:18.986Z,9.57
2018-11-10T21:57:48.050Z,10.30
2018-11-10T22:00:18.152Z,9.10
2018-11-10T22:02:47.013Z,10.60
2018-11-10T22:05:15.549Z,9.50
2018-11-10T22:07:43.983Z,10.33
2018-11-10T22:10:14.888Z,8.47
2018-11-10T22:12:43.554Z,10.37
2018-11-10T22:15:14.469Z,9.47
2018-11-10T22:17:43.831Z,10.37
2018-11-10T22:20:13.904Z,10.47
2018-11-10T22:22:42.417Z,9.57
2018-11-10T22:25:11.599Z,9.97
2018-11-10T22:27:41.525Z,10.57
2018-11-10T22:30:11.939Z,10.50
2018-11-10T22:32:40.570Z,10.00
2018-11-10T22:35:09.592Z,10.00
2018-11-10T22:37:38.249Z,9.90
2018-11-10T22:40:08.403Z,9.50
2018-11-10T22:42:37.756Z,10.27
2018-11-10T22:45:06.946Z,9.50
2018-11-10T22:47:35.382Z,10.67
2018-11-10T22:50:04.085Z,9.90
2018-11-10T22:52:32.523Z,9.67
2018-11-10T22:55:00.940Z,10.10
2018-11-10T22:57:29.374Z,10.00
2018-11-10T22:59:57.808Z,10.40
2018-11-10T23:02:26.278Z,10.27
2018-11-10T23:04:54.685Z,9.43
2018-11-10T23:07:23.134Z,9.63
2018-11-10T23:09:51.538Z,9.70
2018-11-10T23:12:20.016Z,14.77
2018-11-10T23:14:48.440Z,10.00
2018-11-10T23:17:16.970Z,9.57
2018-11-10T23:19:45.339Z,9.70
2018-11-10T23:22:13.791Z,9.50
2018-11-10T23:24:42.213Z,9.53
2018-11-10T23:27:10.648Z,9.63
2018-11-10T23:29:39.093Z,10.17
2018-11-10T23:32:07.573Z,9.87
2018-11-10T23:34:36.034Z,9.60
2018-11-10T23:37:04.458Z,9.93
2018-11-10T23:39:32.911Z,10.10
2018-11-10T23:42:01.360Z,9.20
2018-11-10T23:44:29.805Z,10.53
2018-11-10T23:46:58.225Z,9.77
2018-11-10T23:49:26.669Z,9.70
2018-11-10T23:51:55.097Z,9.20
2018-11-10T23:54:23.512Z,9.33
2018-11-10T23:56:51.945Z,10.20
2018-11-10T23:59:20.391Z,9.50
